createdAt,value
2023-04-06T00:02:23.072Z,101417.72
2023-04-06T00:04:51.347Z,101500.84
2023-04-06T00:07:19.547Z,101500.84
2023-04-06T00:09:47.716Z,101496.34
2023-04-06T00:12:17.256Z,101494.53
2023-04-06T00:14:45.666Z,101501.59
2023-04-06T00:17:13.843Z,101503.41
2023-04-06T00:19:42.022Z,101491.00
2023-04-06T00:22:10.326Z,101483.84
2023-04-06T00:24:38.463Z,101495.38
2023-04-06T00:27:06.684Z,101493.56
2023-04-06T00:29:36.372Z,101487.34
2023-04-06T00:32:04.716Z,101407.88
2023-04-06T00:34:32.908Z,101486.50
2023-04-06T00:37:00.965Z,101487.44
2023-04-06T00:39:29.144Z,101474.28
2023-04-06T00:41:58.589Z,101478.59
2023-04-06T00:44:27.329Z,101472.38
2023-04-06T00:46:57.807Z,101474.28
2023-04-06T00:49:26.047Z,101474.06
2023-04-06T00:51:55.671Z,101392.25
2023-04-06T00:54:23.796Z,101468.72
2023-04-06T00:56:52.076Z,101469.59
2023-04-06T00:59:20.607Z,101464.22
2023-04-06T01:01:48.794Z,101463.34
2023-04-06T01:04:18.373Z,101456.31
2023-04-06T01:06:46.528Z,101469.59
2023-04-06T01:09:14.734Z,101468.72
2023-04-06T01:11:42.982Z,101436.03
2023-04-06T01:14:11.240Z,101462.53
2023-04-06T01:16:39.812Z,101459.00
2023-04-06T01:19:11.173Z,101456.31
2023-04-06T01:21:40.695Z,101457.16
2023-04-06T01:24:11.661Z,101450.97
2023-04-06T01:26:40.761Z,101452.88
2023-04-06T01:29:09.150Z,101450.97
2023-04-06T01:31:37.494Z,101459.00
2023-04-06T01:34:06.112Z,101453.63
2023-04-06T01:36:34.334Z,101456.31
2023-04-06T01:39:02.525Z,101455.44
2023-04-06T01:41:32.013Z,101450.97
2023-04-06T01:44:00.624Z,101447.53
2023-04-06T01:46:28.758Z,101450.97
2023-04-06T01:48:56.857Z,101455.44
2023-04-06T01:51:25.541Z,101450.97
2023-04-06T01:53:53.707Z,101450.97
2023-04-06T01:56:22.244Z,101450.09
2023-04-06T01:58:51.731Z,101444.13
2023-04-06T02:01:20.070Z,101457.16
2023-04-06T02:03:49.378Z,101447.31
2023-04-06T02:06:17.457Z,101452.66
2023-04-06T02:08:45.870Z,101455.44
2023-04-06T02:11:13.957Z,101452.66
2023-04-06T02:13:42.078Z,101447.31
2023-04-06T02:16:11.800Z,101295.94
2023-04-06T02:18:39.946Z,101379.91
2023-04-06T02:21:08.034Z,101450.97
2023-04-06T02:23:36.095Z,101419.97
2023-04-06T02:26:04.163Z,101445.59
2023-04-06T02:28:32.223Z,101447.53
2023-04-06T02:31:00.826Z,101438.53
2023-04-06T02:33:30.362Z,101440.25
2023-04-06T02:35:58.497Z,101438.53
2023-04-06T02:38:26.583Z,101436.59
2023-04-06T02:40:54.709Z,101445.59
2023-04-06T02:43:22.782Z,101432.34
2023-04-06T02:45:50.922Z,101410.97
2023-04-06T02:48:18.983Z,101436.59
2023-04-06T02:50:48.510Z,101436.59
2023-04-06T02:53:16.634Z,101437.56
2023-04-06T02:55:44.682Z,101422.72
2023-04-06T02:58:12.792Z,101441.22
2023-04-06T03:00:40.859Z,101434.91
2023-04-06T03:03:09.268Z,101436.59
2023-04-06T03:05:37.472Z,101446.47
2023-04-06T03:08:07.103Z,101440.25
2023-04-06T03:10:35.303Z,101441.13
2023-04-06T03:13:03.351Z,101445.59
2023-04-06T03:15:31.453Z,101297.66
2023-04-06T03:18:00.715Z,101445.59
2023-04-06T03:20:28.886Z,101456.31
2023-04-06T03:22:56.970Z,101366.47
2023-04-06T03:25:26.626Z,101277.78
2023-04-06T03:27:54.717Z,101454.63
2023-04-06T03:30:22.785Z,101454.63
2023-04-06T03:32:51.029Z,101454.63
2023-04-06T03:35:19.307Z,101458.22
2023-04-06T03:37:47.443Z,101454.63
2023-04-06T03:40:15.560Z,101455.44
2023-04-06T03:42:45.122Z,101461.66
2023-04-06T03:45:13.980Z,101459.97
2023-04-06T03:47:42.120Z,101470.66
2023-04-06T03:50:11.167Z,101459.09
2023-04-06T03:52:39.237Z,101465.31
2023-04-06T03:55:08.805Z,101339.31
2023-04-06T03:57:36.941Z,101460.78
2023-04-06T04:00:08.747Z,101351.28
2023-04-06T04:02:36.837Z,101465.31
2023-04-06T04:05:06.025Z,101466.25
2023-04-06T04:07:34.425Z,101474.28
2023-04-06T04:10:02.517Z,101453.97
2023-04-06T04:12:30.576Z,101357.63
2023-04-06T04:14:58.678Z,101467.00
2023-04-06T04:17:28.277Z,101460.78
2023-04-06T04:19:56.471Z,101467.00
2023-04-06T04:22:24.572Z,101464.56
2023-04-06T04:24:52.701Z,101472.38
2023-04-06T04:27:21.582Z,101471.50
2023-04-06T04:29:50.504Z,101472.38
2023-04-06T04:32:20.035Z,101466.16
2023-04-06T04:34:49.508Z,101465.31
2023-04-06T04:37:17.626Z,101472.38
2023-04-06T04:39:45.959Z,101467.25
2023-04-06T04:42:14.213Z,101472.38
2023-04-06T04:44:42.367Z,101474.28
2023-04-06T04:47:10.532Z,101468.94
2023-04-06T04:49:38.568Z,101373.47
2023-04-06T04:52:08.022Z,101392.50
2023-04-06T04:54:36.162Z,101468.00
2023-04-06T04:57:04.364Z,101472.38
2023-04-06T04:59:32.574Z,101470.66
2023-04-06T05:02:00.726Z,101476.25
2023-04-06T05:04:28.831Z,101472.38
2023-04-06T05:07:05.450Z,101488.44
2023-04-06T05:09:35.173Z,101491.09
2023-04-06T05:12:03.901Z,101476.03
2023-04-06T05:14:32.022Z,101492.09
2023-04-06T05:17:00.594Z,101479.66
2023-04-06T05:19:28.718Z,101484.41
2023-04-06T05:21:56.763Z,101481.38
2023-04-06T05:24:24.938Z,101480.50
2023-04-06T05:26:54.753Z,101477.94
2023-04-06T05:29:23.118Z,101476.97
2023-04-06T05:31:51.395Z,101481.38
2023-04-06T05:34:53.129Z,101482.84
2023-04-06T05:37:21.423Z,101491.63
2023-04-06T05:39:49.518Z,101477.28
2023-04-06T05:42:19.190Z,101489.56
2023-04-06T05:44:47.297Z,101489.44
2023-04-06T05:47:18.193Z,101478.75
2023-04-06T05:49:46.524Z,101491.19
2023-04-06T05:52:24.176Z,101482.16
2023-04-06T05:54:52.363Z,101487.53
2023-04-06T05:57:21.943Z,101487.53
2023-04-06T05:59:49.976Z,101486.06
2023-04-06T06:02:18.178Z,101482.41
2023-04-06T06:04:46.298Z,101487.75
2023-04-06T06:07:14.495Z,101499.44
2023-04-06T06:09:42.722Z,101495.03
2023-04-06T06:12:13.253Z,101491.53
2023-04-06T06:14:44.040Z,101490.66
2023-04-06T06:17:12.171Z,101507.69
2023-04-06T06:19:40.322Z,101497.00
2023-04-06T06:22:08.434Z,101493.56
2023-04-06T06:24:36.611Z,101491.75
2023-04-06T06:27:04.881Z,101493.56
2023-04-06T06:29:33.215Z,101493.56
2023-04-06T06:32:02.950Z,101487.34
2023-04-06T06:34:31.185Z,101406.34
2023-04-06T06:36:59.244Z,101491.00
2023-04-06T06:39:27.708Z,101404.13
2023-04-06T06:41:56.337Z,101494.44
2023-04-06T06:44:24.802Z,101489.19
2023-04-06T06:46:52.860Z,101400.63
2023-04-06T06:49:22.340Z,101496.25
2023-04-06T06:51:50.449Z,101493.56
2023-04-06T06:54:18.638Z,101498.91
2023-04-06T06:56:47.014Z,101498.91
2023-04-06T06:59:15.134Z,101504.25
2023-04-06T07:01:43.251Z,101495.47
2023-04-06T07:04:11.593Z,101503.41
2023-04-06T07:06:41.385Z,101425.94
2023-04-06T07:09:09.478Z,101499.91
2023-04-06T07:11:37.581Z,101503.50
2023-04-06T07:14:05.686Z,101503.50
2023-04-06T07:16:33.884Z,101495.47
2023-04-06T07:19:02.048Z,101507.91
2023-04-06T07:21:30.209Z,101497.22
2023-04-06T07:24:00.001Z,101423.16
2023-04-06T07:26:28.187Z,101496.34
2023-04-06T07:28:56.325Z,101502.56
2023-04-06T07:31:24.483Z,101502.56
2023-04-06T07:33:52.626Z,101506.19
2023-04-06T07:36:20.748Z,101507.06
2023-04-06T07:38:50.043Z,101506.19
2023-04-06T07:41:19.656Z,101372.22
2023-04-06T07:43:47.787Z,101484.19
2023-04-06T07:46:15.953Z,101502.69
2023-04-06T07:48:44.078Z,101500.84
2023-04-06T07:51:15.441Z,101500.00
2023-04-06T07:53:43.655Z,101503.50
2023-04-06T07:56:11.810Z,101510.72
2023-04-06T07:58:41.345Z,101418.59
2023-04-06T08:01:09.549Z,101506.19
2023-04-06T08:03:38.451Z,101514.34
2023-04-06T08:06:07.182Z,101512.53
2023-04-06T08:08:35.332Z,101512.53
2023-04-06T08:11:04.545Z,101503.03
2023-04-06T08:13:32.700Z,101510.81
2023-04-06T08:16:02.739Z,101519.69
2023-04-06T08:18:31.129Z,101525.91
2023-04-06T08:20:59.494Z,101520.56
2023-04-06T08:23:30.438Z,101516.91
2023-04-06T08:25:58.650Z,101507.50
2023-04-06T08:28:26.776Z,101363.06
2023-04-06T08:30:55.103Z,101528.66
2023-04-06T08:33:25.116Z,101526.72
2023-04-06T08:35:53.412Z,101525.00
2023-04-06T08:38:21.614Z,101527.69
2023-04-06T08:40:52.792Z,101465.84
2023-04-06T08:43:24.892Z,101535.94
2023-04-06T08:45:53.205Z,101534.25
2023-04-06T08:48:22.934Z,101532.50
2023-04-06T08:50:52.979Z,101534.47
2023-04-06T08:53:24.053Z,101506.47
2023-04-06T08:55:53.493Z,101437.44
2023-04-06T08:58:35.133Z,101518.66
2023-04-06T09:01:10.061Z,101547.09
2023-04-06T09:03:41.264Z,101543.78
2023-04-06T09:06:12.437Z,101545.41
2023-04-06T09:08:42.138Z,101548.81
2023-04-06T09:11:11.079Z,101546.88
2023-04-06T09:13:50.105Z,101459.63
2023-04-06T09:16:18.478Z,101548.34
2023-04-06T09:18:47.242Z,101468.84
2023-04-06T09:21:21.976Z,101544.72
2023-04-06T09:24:01.461Z,101529.78
2023-04-06T09:26:30.675Z,101564.63
2023-04-06T09:29:02.255Z,101491.16
2023-04-06T09:31:34.144Z,101540.06
2023-04-06T09:34:02.910Z,101564.19
2023-04-06T09:36:37.015Z,101562.50
2023-04-06T09:39:06.788Z,101392.16
2023-04-06T09:41:36.205Z,101566.16
2023-04-06T09:44:06.434Z,101571.50
2023-04-06T09:46:54.898Z,101571.72
2023-04-06T09:49:30.128Z,101571.72
2023-04-06T09:52:01.951Z,101568.28
2023-04-06T09:54:31.726Z,101411.84
2023-04-06T09:57:07.092Z,101579.00
2023-04-06T09:59:46.539Z,101575.56
2023-04-06T10:02:24.061Z,101478.06
2023-04-06T10:04:58.942Z,101499.75
2023-04-06T10:07:29.508Z,101427.22
2023-04-06T10:09:58.124Z,101419.09
2023-04-06T10:12:26.247Z,101569.81
2023-04-06T10:14:54.789Z,101570.66
2023-04-06T10:17:25.192Z,101568.00
2023-04-06T10:19:58.805Z,101574.09
2023-04-06T10:22:35.732Z,101573.00
2023-04-06T10:25:05.591Z,101568.28
2023-04-06T10:27:35.209Z,101577.09
2023-04-06T10:30:05.546Z,101585.84
2023-04-06T10:32:38.420Z,101439.78
2023-04-06T10:35:11.129Z,101496.66
2023-04-06T10:37:53.807Z,101572.97
2023-04-06T10:40:27.361Z,101579.06
2023-04-06T10:42:58.042Z,101571.91
2023-04-06T10:45:27.485Z,101585.16
2023-04-06T10:47:56.380Z,101586.88
2023-04-06T10:50:25.047Z,101580.56
2023-04-06T10:53:12.516Z,101577.91
2023-04-06T10:55:42.796Z,101583.25
2023-04-06T10:58:10.990Z,101393.66
2023-04-06T11:00:50.674Z,101555.44
2023-04-06T11:03:20.519Z,101574.22
2023-04-06T11:05:49.333Z,101559.06
2023-04-06T11:08:33.088Z,101483.38
2023-04-06T11:11:09.598Z,101578.63
2023-04-06T11:13:42.504Z,101449.59
2023-04-06T11:16:15.721Z,101571.44
2023-04-06T11:18:52.123Z,101571.34
2023-04-06T11:21:20.659Z,101577.56
2023-04-06T11:23:50.274Z,101577.44
2023-04-06T11:26:18.417Z,101570.34
2023-04-06T11:28:50.722Z,101572.91
2023-04-06T11:31:18.890Z,101568.44
2023-04-06T11:33:47.538Z,101556.47
2023-04-06T11:36:18.864Z,101575.47
2023-04-06T11:38:47.173Z,101578.16
2023-04-06T11:41:16.792Z,101580.84
2023-04-06T11:43:49.904Z,101493.84
2023-04-06T11:46:20.780Z,101586.19
2023-04-06T11:48:49.022Z,101577.22
2023-04-06T11:51:24.817Z,101576.47
2023-04-06T11:53:53.117Z,101492.34
2023-04-06T11:56:30.325Z,101572.69
2023-04-06T11:59:00.907Z,101578.06
2023-04-06T12:01:29.423Z,101548.47
2023-04-06T12:03:58.423Z,101563.97
2023-04-06T12:06:27.324Z,101562.06
2023-04-06T12:08:55.470Z,101405.19
2023-04-06T12:11:23.658Z,101594.97
2023-04-06T12:13:53.294Z,101577.66
2023-04-06T12:16:21.527Z,101596.69
2023-04-06T12:18:49.774Z,101580.13
2023-04-06T12:21:17.919Z,101581.72
2023-04-06T12:23:46.376Z,101585.38
2023-04-06T12:26:14.512Z,101585.97
2023-04-06T12:28:42.619Z,101589.41
2023-04-06T12:31:17.574Z,101592.09
2023-04-06T12:33:46.648Z,101594.75
2023-04-06T12:36:15.049Z,101585.97
2023-04-06T12:38:45.841Z,101535.38
2023-04-06T12:41:14.218Z,101604.59
2023-04-06T12:43:42.831Z,101526.34
2023-04-06T12:46:12.934Z,101509.22
2023-04-06T12:48:41.506Z,101506.03
2023-04-06T12:51:10.011Z,101460.94
2023-04-06T12:53:38.352Z,101587.69
2023-04-06T12:56:14.501Z,101516.94
2023-04-06T12:58:43.283Z,101587.94
2023-04-06T13:01:16.969Z,101579.03
2023-04-06T13:03:45.767Z,101598.41
2023-04-06T13:06:14.128Z,101593.06
2023-04-06T13:08:42.652Z,101565.66
2023-04-06T13:11:11.184Z,101584.50
2023-04-06T13:13:39.693Z,101596.56
2023-04-06T13:16:10.074Z,101591.31
2023-04-06T13:18:40.544Z,101587.94
2023-04-06T13:21:09.205Z,101601.81
2023-04-06T13:23:37.429Z,101601.81
2023-04-06T13:26:07.223Z,101570.47
2023-04-06T13:28:50.086Z,101576.56
2023-04-06T13:31:18.193Z,101590.28
2023-04-06T13:33:50.522Z,101584.91
2023-04-06T13:36:18.704Z,101587.59
2023-04-06T13:38:47.701Z,101581.25
2023-04-06T13:41:21.965Z,101582.13
2023-04-06T13:43:50.903Z,101576.78
2023-04-06T13:46:19.714Z,101497.47
2023-04-06T13:48:49.400Z,101581.16
2023-04-06T13:51:17.621Z,101583.81
2023-04-06T13:53:45.757Z,101582.34
2023-04-06T13:56:13.845Z,101575.03
2023-04-06T13:58:42.149Z,101554.50
2023-04-06T14:01:13.136Z,101583.81
2023-04-06T14:03:43.307Z,101575.03
2023-04-06T14:06:29.843Z,101575.03
2023-04-06T14:08:59.884Z,101583.81
2023-04-06T14:11:28.184Z,101510.28
2023-04-06T14:13:58.231Z,101590.03
2023-04-06T14:16:27.592Z,101585.53
2023-04-06T14:18:56.173Z,101576.53
2023-04-06T14:21:27.659Z,101582.13
2023-04-06T14:23:58.088Z,101547.56
2023-04-06T14:26:28.626Z,101499.81
2023-04-06T14:28:56.850Z,101577.47
2023-04-06T14:31:25.061Z,101576.53
2023-04-06T14:33:54.621Z,101564.66
2023-04-06T14:36:22.778Z,101571.19
2023-04-06T14:38:53.230Z,101561.16
2023-04-06T14:41:24.653Z,101574.81
2023-04-06T14:43:53.750Z,101501.50
2023-04-06T14:46:21.880Z,101578.25
2023-04-06T14:48:50.089Z,101517.13
2023-04-06T14:51:18.263Z,101577.00
2023-04-06T14:53:46.705Z,101576.53
2023-04-06T14:56:21.596Z,101581.03
2023-04-06T14:58:49.656Z,101549.38
2023-04-06T15:01:17.729Z,101576.53
2023-04-06T15:03:46.638Z,101479.25
2023-04-06T15:06:16.789Z,101580.16
2023-04-06T15:08:45.130Z,101573.97
2023-04-06T15:11:13.930Z,101578.47
2023-04-06T15:13:45.067Z,101599.66
2023-04-06T15:16:15.731Z,101580.16
2023-04-06T15:18:43.875Z,101510.53
2023-04-06T15:21:13.127Z,101590.88
2023-04-06T15:23:41.520Z,101587.25
2023-04-06T15:26:10.267Z,101593.44
2023-04-06T15:28:38.344Z,101594.31
2023-04-06T15:31:28.049Z,101592.59
2023-04-06T15:34:03.946Z,101591.75
2023-04-06T15:36:32.159Z,101590.88
2023-04-06T15:39:01.878Z,101589.94
2023-04-06T15:41:30.769Z,101601.59
2023-04-06T15:43:58.864Z,101606.00
2023-04-06T15:46:29.029Z,101594.53
2023-04-06T15:48:57.481Z,101408.13
2023-04-06T15:51:26.415Z,101401.84
2023-04-06T15:53:54.617Z,101596.22
2023-04-06T15:56:22.680Z,101587.69
2023-04-06T15:58:51.065Z,101595.63
2023-04-06T16:01:20.554Z,101430.59
2023-04-06T16:03:50.440Z,101579.38
2023-04-06T16:06:18.901Z,101494.06
2023-04-06T16:08:47.124Z,101588.88
2023-04-06T16:11:15.582Z,101583.03
2023-04-06T16:13:47.311Z,101538.97
2023-04-06T16:16:21.507Z,101597.13
2023-04-06T16:18:51.158Z,101603.47
2023-04-06T16:21:19.635Z,101602.59
2023-04-06T16:23:48.973Z,101477.00
2023-04-06T16:26:19.130Z,101611.50
2023-04-06T16:28:47.633Z,101577.69
2023-04-06T16:31:21.501Z,101602.00
2023-04-06T16:33:52.889Z,101608.94
2023-04-06T16:36:24.643Z,101609.81
2023-04-06T16:38:53.110Z,101605.63
2023-04-06T16:41:21.213Z,101611.72
2023-04-06T16:43:49.621Z,101610.03
2023-04-06T16:46:18.351Z,101610.03
2023-04-06T16:48:46.492Z,101617.09
2023-04-06T16:51:16.156Z,101614.13
2023-04-06T16:53:44.319Z,101591.41
2023-04-06T16:56:12.409Z,101618.84
2023-04-06T16:58:40.559Z,101609.72
2023-04-06T17:01:08.685Z,101608.72
2023-04-06T17:03:36.874Z,101613.84
2023-04-06T17:06:05.248Z,101611.19
2023-04-06T17:08:34.789Z,101623.63
2023-04-06T17:11:04.621Z,101624.56
2023-04-06T17:13:33.149Z,101488.84
2023-04-06T17:16:01.424Z,101628.25
2023-04-06T17:18:30.881Z,101627.47
2023-04-06T17:20:59.273Z,101482.09
2023-04-06T17:23:27.407Z,101629.44
2023-04-06T17:25:57.920Z,101626.00
2023-04-06T17:28:26.207Z,101629.66
2023-04-06T17:30:54.337Z,101634.16
2023-04-06T17:33:22.425Z,101638.66
2023-04-06T17:35:50.607Z,101628.59
2023-04-06T17:38:18.653Z,101636.94
2023-04-06T17:40:46.797Z,101647.66
2023-04-06T17:43:17.305Z,101637.19
2023-04-06T17:45:45.435Z,101644.13
2023-04-06T17:48:13.430Z,101645.97
2023-04-06T17:50:41.466Z,101645.97
2023-04-06T17:53:09.605Z,101645.22
2023-04-06T17:55:37.661Z,101647.88
2023-04-06T17:58:06.675Z,101647.88
2023-04-06T18:00:36.197Z,101649.69
2023-04-06T18:03:04.430Z,101484.09
2023-04-06T18:05:32.591Z,101495.19
2023-04-06T18:08:00.613Z,101656.91
2023-04-06T18:10:28.617Z,101548.41
2023-04-06T18:12:56.622Z,101664.19
2023-04-06T18:15:24.728Z,101666.75
2023-04-06T18:17:54.347Z,101665.78
2023-04-06T18:20:22.436Z,101667.63
2023-04-06T18:25:25.433Z,101672.97
2023-04-06T18:27:53.507Z,101671.25
2023-04-06T18:30:21.715Z,101669.53
2023-04-06T18:32:49.973Z,101681.94
2023-04-06T18:35:19.463Z,101681.94
2023-04-06T18:37:47.517Z,101676.72
2023-04-06T18:40:34.118Z,101685.63
2023-04-06T18:43:03.371Z,101686.91
2023-04-06T18:45:33.276Z,101698.25
2023-04-06T18:48:01.464Z,101706.19
2023-04-06T18:50:31.408Z,101696.31
2023-04-06T18:52:59.582Z,101544.84
2023-04-06T18:55:27.881Z,101701.91
2023-04-06T18:57:55.981Z,101707.03
2023-04-06T19:00:24.019Z,101702.66
2023-04-06T19:02:52.295Z,101705.34
2023-04-06T19:05:22.400Z,101710.69
2023-04-06T19:07:52.806Z,101702.78
2023-04-06T19:10:21.492Z,101620.78
2023-04-06T19:12:49.783Z,101710.69
2023-04-06T19:15:18.066Z,101715.19
2023-04-06T19:17:47.671Z,101714.31
2023-04-06T19:20:15.949Z,101716.06
2023-04-06T19:22:44.850Z,101717.88
2023-04-06T19:25:14.478Z,101567.50
2023-04-06T19:27:42.609Z,101725.91
2023-04-06T19:30:11.461Z,101542.47
2023-04-06T19:32:41.289Z,101647.25
2023-04-06T19:35:10.274Z,101725.03
2023-04-06T19:37:38.994Z,101725.03
2023-04-06T19:40:10.605Z,101728.69
2023-04-06T19:42:40.290Z,101733.19
2023-04-06T19:45:09.282Z,101660.84
2023-04-06T19:47:37.453Z,101658.06
2023-04-06T19:50:07.495Z,101730.38
2023-04-06T19:52:35.886Z,101735.75
2023-04-06T19:55:04.446Z,101735.75
2023-04-06T19:57:32.541Z,101727.72
2023-04-06T20:00:01.983Z,101741.09
2023-04-06T20:02:30.202Z,101739.41
2023-04-06T20:04:58.362Z,101746.47
2023-04-06T20:07:26.441Z,101747.34
2023-04-06T20:09:54.538Z,101741.09
2023-04-06T20:12:22.581Z,101746.47
2023-04-06T20:14:51.089Z,101744.75
2023-04-06T20:17:20.586Z,101747.44
2023-04-06T20:19:49.723Z,101750.13
2023-04-06T20:22:17.749Z,101674.00
2023-04-06T20:24:45.929Z,101745.75
2023-04-06T20:27:14.140Z,101684.06
2023-04-06T20:29:42.193Z,101753.78
2023-04-06T20:32:11.430Z,101754.59
2023-04-06T20:34:40.878Z,101747.44
2023-04-06T20:37:08.974Z,101749.25
2023-04-06T20:39:37.156Z,101757.28
2023-04-06T20:42:05.552Z,101758.16
2023-04-06T20:44:33.921Z,101586.34
2023-04-06T20:47:02.067Z,101755.47
2023-04-06T20:49:30.207Z,101765.31
2023-04-06T20:52:01.515Z,101760.84
2023-04-06T20:54:29.973Z,101759.34
2023-04-06T20:56:59.936Z,101768.88
2023-04-06T20:59:28.147Z,101670.66
2023-04-06T21:01:56.338Z,101772.53
2023-04-06T21:04:24.581Z,101772.53
2023-04-06T21:06:52.703Z,101769.84
2023-04-06T21:09:22.112Z,101702.16
2023-04-06T21:11:50.119Z,101782.25
2023-04-06T21:14:20.556Z,101775.19
2023-04-06T21:16:49.191Z,101768.97
2023-04-06T21:19:17.296Z,101773.47
2023-04-06T21:21:45.436Z,101769.84
2023-04-06T21:24:13.410Z,101772.19
2023-04-06T21:26:42.810Z,101782.25
2023-04-06T21:29:10.976Z,101793.94
2023-04-06T21:31:42.329Z,101790.41
2023-04-06T21:34:11.546Z,101786.13
2023-04-06T21:36:40.073Z,101785.91
2023-04-06T21:39:08.444Z,101730.00
2023-04-06T21:41:36.519Z,101791.28
2023-04-06T21:44:06.194Z,101792.97
2023-04-06T21:46:34.310Z,101787.84
2023-04-06T21:49:02.440Z,101786.97
2023-04-06T21:51:30.531Z,101789.53
2023-04-06T21:53:58.592Z,101789.53
2023-04-06T21:56:27.487Z,101798.56
2023-04-06T21:58:55.538Z,101786.13
2023-04-06T22:01:24.952Z,101798.56
2023-04-06T22:03:56.552Z,101804.88
2023-04-06T22:06:25.837Z,101797.78
2023-04-06T22:08:53.985Z,101797.28
2023-04-06T22:11:21.997Z,101636.38
2023-04-06T22:13:50.073Z,101807.56
2023-04-06T22:16:18.674Z,101743.22
2023-04-06T22:18:48.225Z,101815.59
2023-04-06T22:21:16.342Z,101816.53
2023-04-06T22:23:44.476Z,101818.28
2023-04-06T22:26:13.340Z,101817.41
2023-04-06T22:28:42.327Z,101814.63
2023-04-06T22:31:10.570Z,101816.53
2023-04-06T22:33:38.570Z,101810.34
2023-04-06T22:36:08.620Z,101810.25
2023-04-06T22:38:37.442Z,101808.41
2023-04-06T22:41:07.192Z,101657.78
2023-04-06T22:43:36.403Z,101816.53
2023-04-06T22:46:04.800Z,101813.88
2023-04-06T22:48:32.855Z,101814.72
2023-04-06T22:51:00.902Z,101811.19
2023-04-06T22:53:30.592Z,101816.53
2023-04-06T22:55:58.580Z,101811.19
2023-04-06T22:58:26.590Z,101821.91
2023-04-06T23:00:54.618Z,101815.69
2023-04-06T23:03:22.774Z,101821.91
2023-04-06T23:05:50.890Z,101824.56
2023-04-06T23:08:18.918Z,101818.50
2023-04-06T23:10:48.510Z,101816.53
2023-04-06T23:13:16.776Z,101823.75
2023-04-06T23:15:45.071Z,101828.22
2023-04-06T23:18:13.166Z,101822.09
2023-04-06T23:20:41.443Z,101829.19
2023-04-06T23:23:09.542Z,101662.38
2023-04-06T23:25:37.591Z,101822.53
2023-04-06T23:28:07.035Z,101841.63
2023-04-06T23:30:35.256Z,101835.50
2023-04-06T23:33:03.637Z,101841.63
2023-04-06T23:35:31.988Z,101835.28
2023-04-06T23:38:00.122Z,101761.97
2023-04-06T23:40:28.231Z,101847.84
2023-04-06T23:42:56.344Z,101834.78
2023-04-06T23:45:26.028Z,101841.63
2023-04-06T23:47:54.169Z,101845.28
2023-04-06T23:50:22.570Z,101845.28
2023-04-06T23:52:50.955Z,101845.28
2023-04-06T23:55:19.133Z,101850.63
2023-04-06T23:57:47.176Z,101682.81
